createdAt,value
2022-07-31T00:01:49.598Z,39.35
2022-07-31T00:04:21.494Z,39.03
2022-07-31T00:06:50.835Z,38.81
2022-07-31T00:09:52.541Z,39.62
2022-07-31T00:12:09.728Z,39.17
2022-07-31T00:14:39.323Z,39.54
2022-07-31T00:17:08.729Z,39.31
2022-07-31T00:19:41.633Z,40.13
2022-07-31T00:22:12.596Z,40.06
2022-07-31T00:24:42.103Z,40.50
2022-07-31T00:27:11.520Z,40.95
2022-07-31T00:29:41.179Z,41.09
2022-07-31T00:32:11.521Z,41.07
2022-07-31T00:34:43.456Z,41.04
2022-07-31T00:37:12.978Z,40.93
2022-07-31T00:39:42.292Z,41.30
2022-07-31T00:42:19.533Z,42.01
2022-07-31T00:44:49.153Z,41.91
2022-07-31T00:47:18.762Z,42.43
2022-07-31T00:49:56.366Z,41.77
2022-07-31T00:52:26.022Z,41.99
2022-07-31T00:54:55.458Z,42.29
2022-07-31T00:57:24.826Z,41.85
2022-07-31T00:59:54.142Z,42.14
2022-07-31T01:02:23.993Z,41.80
2022-07-31T01:04:55.914Z,42.02
2022-07-31T01:07:25.982Z,42.69
2022-07-31T01:09:56.472Z,42.47
2022-07-31T01:12:30.074Z,42.97
2022-07-31T01:15:01.664Z,43.15
2022-07-31T01:17:33.207Z,43.38
2022-07-31T01:20:05.801Z,44.00
2022-07-31T01:22:45.660Z,43.79
2022-07-31T01:25:19.891Z,44.10
2022-07-31T01:28:07.524Z,44.44
2022-07-31T01:30:42.293Z,44.21
2022-07-31T01:33:13.451Z,44.54
2022-07-31T01:35:44.922Z,44.80
2022-07-31T01:38:16.903Z,44.62
2022-07-31T01:40:47.572Z,44.63
2022-07-31T01:43:19.029Z,44.77
2022-07-31T01:45:53.983Z,44.28
2022-07-31T01:48:23.631Z,44.62
2022-07-31T01:50:55.607Z,44.61
2022-07-31T01:53:26.882Z,45.09
2022-07-31T01:56:02.735Z,44.73
2022-07-31T01:58:37.400Z,45.30
2022-07-31T02:01:15.766Z,45.18
2022-07-31T02:03:46.842Z,45.32
2022-07-31T02:06:21.670Z,44.91
2022-07-31T02:08:52.799Z,45.42
2022-07-31T02:11:23.139Z,45.57
2022-07-31T02:13:54.062Z,45.54
2022-07-31T02:16:27.544Z,45.37
2022-07-31T02:19:06.691Z,45.47
2022-07-31T02:21:37.421Z,45.64
2022-07-31T02:24:08.080Z,45.61
2022-07-31T02:26:38.039Z,45.40
2022-07-31T02:29:19.703Z,45.49
2022-07-31T02:32:02.917Z,45.45
2022-07-31T02:34:33.755Z,45.60
2022-07-31T02:37:03.890Z,45.80
2022-07-31T02:39:34.852Z,45.72
2022-07-31T02:42:06.411Z,45.58
2022-07-31T02:44:36.329Z,46.07
2022-07-31T02:47:09.110Z,45.78
2022-07-31T02:49:38.539Z,45.44
2022-07-31T02:52:08.525Z,45.82
2022-07-31T02:54:40.695Z,46.14
2022-07-31T02:57:10.735Z,45.95
2022-07-31T02:59:40.395Z,45.52
2022-07-31T03:02:12.564Z,46.58
2022-07-31T03:04:45.208Z,46.56
2022-07-31T03:07:14.914Z,46.68
2022-07-31T03:09:44.272Z,46.72
2022-07-31T03:12:32.253Z,46.28
2022-07-31T03:15:02.434Z,46.27
2022-07-31T03:17:40.769Z,46.57
2022-07-31T03:20:13.800Z,46.57
2022-07-31T03:22:43.366Z,46.29
2022-07-31T03:25:20.204Z,46.91
2022-07-31T03:27:55.053Z,46.58
2022-07-31T03:30:26.590Z,47.27
2022-07-31T03:33:03.397Z,46.92
2022-07-31T03:35:39.267Z,46.82
2022-07-31T03:38:39.713Z,47.34
2022-07-31T03:41:05.554Z,47.23
2022-07-31T03:43:47.286Z,47.04
2022-07-31T03:46:19.804Z,47.39
2022-07-31T03:48:53.102Z,46.99
2022-07-31T03:51:23.962Z,47.00
2022-07-31T03:53:54.062Z,46.75
2022-07-31T03:56:59.695Z,47.13
2022-07-31T03:59:39.875Z,46.76
2022-07-31T04:02:18.675Z,47.21
2022-07-31T04:04:54.650Z,47.67
2022-07-31T04:07:24.292Z,47.54
2022-07-31T04:09:54.141Z,47.06
2022-07-31T04:12:23.473Z,46.95
2022-07-31T04:14:53.368Z,46.97
2022-07-31T04:17:22.674Z,47.43
2022-07-31T04:19:54.656Z,47.41
2022-07-31T04:22:24.167Z,47.43
2022-07-31T04:24:53.546Z,47.58
2022-07-31T04:27:45.665Z,48.06
2022-07-31T04:30:17.589Z,47.94
2022-07-31T04:32:47.792Z,47.63
2022-07-31T04:35:24.172Z,47.55
2022-07-31T04:37:53.558Z,47.60
2022-07-31T04:40:26.374Z,47.61
2022-07-31T04:42:56.437Z,47.89
2022-07-31T04:45:25.771Z,47.94
2022-07-31T04:47:55.816Z,47.84
2022-07-31T04:50:27.714Z,47.94
2022-07-31T04:53:01.326Z,47.73
2022-07-31T04:55:36.214Z,47.70
2022-07-31T04:58:05.776Z,48.04
2022-07-31T05:00:35.149Z,47.86
2022-07-31T05:03:05.901Z,47.79
2022-07-31T05:05:37.862Z,47.63
2022-07-31T05:08:07.268Z,47.48
2022-07-31T05:10:57.648Z,47.79
2022-07-31T05:13:27.076Z,47.69
2022-07-31T05:15:56.883Z,47.58
2022-07-31T05:18:26.304Z,47.24
2022-07-31T05:21:17.435Z,47.15
2022-07-31T05:24:05.002Z,47.29
2022-07-31T05:26:46.230Z,47.02
2022-07-31T05:29:15.540Z,47.04
2022-07-31T05:32:00.265Z,47.05
2022-07-31T05:34:32.000Z,47.49
2022-07-31T05:37:04.529Z,46.65
2022-07-31T05:39:35.656Z,46.73
2022-07-31T05:42:23.625Z,46.44
2022-07-31T05:45:01.979Z,46.42
2022-07-31T05:47:40.067Z,46.18
2022-07-31T05:50:10.763Z,46.13
2022-07-31T05:52:43.193Z,45.69
2022-07-31T05:55:23.482Z,45.26
2022-07-31T05:58:16.862Z,45.34
2022-07-31T06:00:47.306Z,45.53
2022-07-31T06:03:16.826Z,45.47
2022-07-31T06:05:55.808Z,45.49
2022-07-31T06:08:29.198Z,45.35
2022-07-31T06:10:59.272Z,45.22
2022-07-31T06:13:30.271Z,45.23
2022-07-31T06:16:14.056Z,45.11
2022-07-31T06:18:44.250Z,45.08
2022-07-31T06:23:44.778Z,44.64
2022-07-31T06:26:40.826Z,44.37
2022-07-31T06:29:11.555Z,43.95
2022-07-31T06:31:40.930Z,44.23
2022-07-31T06:34:11.669Z,43.65
2022-07-31T06:36:43.954Z,43.54
2022-07-31T06:39:20.019Z,43.04
2022-07-31T06:42:25.497Z,42.52
2022-07-31T06:45:48.533Z,42.39
2022-07-31T06:48:42.643Z,41.50
2022-07-31T06:51:30.292Z,41.32
2022-07-31T06:54:00.270Z,41.49
2022-07-31T06:56:32.301Z,41.10
2022-07-31T06:59:01.717Z,40.89
2022-07-31T07:01:31.675Z,41.30
2022-07-31T07:04:01.038Z,41.54
2022-07-31T07:06:30.538Z,41.45
2022-07-31T07:09:01.063Z,41.60
2022-07-31T07:11:35.500Z,41.48
2022-07-31T07:14:04.936Z,41.44
2022-07-31T07:16:34.259Z,41.47
2022-07-31T07:19:03.608Z,41.04
2022-07-31T07:21:32.912Z,40.81
2022-07-31T07:24:02.415Z,40.98
2022-07-31T07:26:54.580Z,40.67
2022-07-31T07:29:24.559Z,40.32
2022-07-31T07:31:54.712Z,40.09
2022-07-31T07:34:24.519Z,39.41
2022-07-31T07:36:53.923Z,39.08
2022-07-31T07:39:26.350Z,38.49
2022-07-31T07:41:58.319Z,38.26
2022-07-31T07:44:29.589Z,37.40
2022-07-31T07:46:58.944Z,37.26
2022-07-31T07:49:30.422Z,37.57
2022-07-31T07:52:20.082Z,37.34
2022-07-31T07:55:18.203Z,36.92
2022-07-31T07:58:12.196Z,36.56
2022-07-31T08:01:00.373Z,36.69
2022-07-31T08:03:48.262Z,36.62
2022-07-31T08:06:19.236Z,35.96
2022-07-31T08:08:48.582Z,35.84
2022-07-31T08:11:46.805Z,35.71
2022-07-31T08:14:27.351Z,35.07
2022-07-31T08:17:19.458Z,34.96
2022-07-31T08:19:51.400Z,34.65
2022-07-31T08:22:21.622Z,34.60
2022-07-31T08:24:51.019Z,34.39
2022-07-31T08:27:39.604Z,34.33
2022-07-31T08:30:13.743Z,33.92
2022-07-31T08:32:43.093Z,34.05
2022-07-31T08:35:12.523Z,34.16
2022-07-31T08:37:57.525Z,32.94
2022-07-31T08:40:42.710Z,33.20
2022-07-31T08:44:00.863Z,32.90
2022-07-31T08:46:08.044Z,32.66
2022-07-31T08:48:42.694Z,31.42
2022-07-31T08:51:14.138Z,31.59
2022-07-31T08:54:02.098Z,30.26
2022-07-31T08:56:31.509Z,31.23
2022-07-31T08:59:03.293Z,30.90
2022-07-31T09:01:35.614Z,31.01
2022-07-31T09:04:05.644Z,31.14
2022-07-31T09:06:37.644Z,30.88
2022-07-31T09:09:08.065Z,30.71
2022-07-31T09:11:51.243Z,30.95
2022-07-31T09:14:40.609Z,31.06
2022-07-31T09:17:15.857Z,31.10
2022-07-31T09:19:52.719Z,31.10
2022-07-31T09:22:32.092Z,31.65
2022-07-31T09:25:12.204Z,31.51
2022-07-31T09:27:42.350Z,31.51
2022-07-31T09:30:13.002Z,31.49
2022-07-31T09:32:57.406Z,31.40
2022-07-31T09:35:50.674Z,31.06
2022-07-31T09:38:20.647Z,30.99
2022-07-31T09:41:26.814Z,31.11
2022-07-31T09:44:10.008Z,30.51
2022-07-31T09:46:44.557Z,30.67
2022-07-31T09:49:16.631Z,30.73
2022-07-31T09:51:49.805Z,30.09
2022-07-31T09:54:23.845Z,29.60
2022-07-31T09:57:12.484Z,29.94
2022-07-31T09:59:47.987Z,29.73
2022-07-31T10:02:18.715Z,29.67
2022-07-31T10:04:53.346Z,29.71
2022-07-31T10:07:32.623Z,29.17
2022-07-31T10:10:13.065Z,28.75
2022-07-31T10:12:56.956Z,28.92
2022-07-31T10:15:29.008Z,29.39
2022-07-31T10:18:18.502Z,29.54
2022-07-31T10:21:28.388Z,29.57
2022-07-31T10:24:12.633Z,29.49
2022-07-31T10:27:00.826Z,29.84
2022-07-31T10:29:34.970Z,29.52
2022-07-31T10:32:08.071Z,29.44
2022-07-31T10:34:41.262Z,29.69
2022-07-31T10:37:16.164Z,30.21
2022-07-31T10:40:09.512Z,30.40
2022-07-31T10:42:46.550Z,29.92
2022-07-31T10:45:17.510Z,29.98
2022-07-31T10:47:58.603Z,29.56
2022-07-31T10:50:46.631Z,28.87
2022-07-31T10:53:50.258Z,28.78
2022-07-31T10:56:43.394Z,28.57
2022-07-31T10:59:32.984Z,29.17
2022-07-31T11:02:29.881Z,28.27
2022-07-31T11:05:14.117Z,28.62
2022-07-31T11:08:21.580Z,28.90
2022-07-31T11:11:03.580Z,27.79
2022-07-31T11:13:55.418Z,27.13
2022-07-31T11:16:52.322Z,27.68
2022-07-31T11:19:41.371Z,28.02
2022-07-31T11:22:31.789Z,27.44
2022-07-31T11:25:02.641Z,27.31
2022-07-31T11:27:34.983Z,27.31
2022-07-31T11:30:13.169Z,26.82
2022-07-31T11:32:42.937Z,27.04
2022-07-31T11:35:12.229Z,27.28
2022-07-31T11:37:46.084Z,27.30
2022-07-31T11:40:16.355Z,27.18
2022-07-31T11:43:04.704Z,27.31
2022-07-31T11:45:48.249Z,27.00
2022-07-31T11:48:19.255Z,27.75
2022-07-31T11:50:49.177Z,26.97
2022-07-31T11:53:19.211Z,26.83
2022-07-31T11:55:52.638Z,26.53
2022-07-31T11:58:25.748Z,26.73
2022-07-31T12:00:55.951Z,26.58
2022-07-31T12:03:27.676Z,27.03
2022-07-31T12:05:57.094Z,26.52
2022-07-31T12:08:27.511Z,27.02
2022-07-31T12:11:00.069Z,27.06
2022-07-31T12:13:32.791Z,27.24
2022-07-31T12:16:03.257Z,26.44
2022-07-31T12:18:33.498Z,26.23
2022-07-31T12:21:03.790Z,26.81
2022-07-31T12:23:42.149Z,26.92
2022-07-31T12:26:13.468Z,26.98
2022-07-31T12:28:45.492Z,26.13
2022-07-31T12:31:14.840Z,26.24
2022-07-31T12:33:45.715Z,25.60
2022-07-31T12:36:16.257Z,25.54
2022-07-31T12:38:48.981Z,25.46
2022-07-31T12:41:19.116Z,25.43
2022-07-31T12:43:52.721Z,25.27
2022-07-31T12:46:23.335Z,25.34
2022-07-31T12:48:53.072Z,25.74
2022-07-31T12:51:45.439Z,25.42
2022-07-31T12:54:12.291Z,25.09
2022-07-31T12:56:42.414Z,24.73
2022-07-31T12:59:14.707Z,24.57
2022-07-31T16:03:51.135Z,22.26
2022-07-31T16:06:28.185Z,22.03
2022-07-31T16:09:01.460Z,21.72
2022-07-31T16:12:03.757Z,21.88
2022-07-31T16:14:20.093Z,21.47
2022-07-31T16:16:49.420Z,21.88
2022-07-31T16:19:25.132Z,21.63
2022-07-31T16:21:55.239Z,21.58
2022-07-31T16:24:25.123Z,20.94
2022-07-31T16:26:54.463Z,21.20
2022-07-31T16:29:57.753Z,21.23
2022-07-31T16:32:14.332Z,20.99
2022-07-31T16:34:51.661Z,20.84
2022-07-31T16:37:22.037Z,20.89
2022-07-31T16:40:28.175Z,21.05
2022-07-31T16:43:00.949Z,20.73
2022-07-31T16:45:30.865Z,20.83
2022-07-31T16:48:00.486Z,20.70
2022-07-31T16:50:32.513Z,20.51
2022-07-31T16:53:01.812Z,20.37
2022-07-31T16:55:46.134Z,20.52
2022-07-31T16:58:24.810Z,19.92
2022-07-31T17:00:54.397Z,19.76
2022-07-31T17:03:59.342Z,19.65
2022-07-31T17:06:16.711Z,19.50
2022-07-31T17:08:46.391Z,19.32
2022-07-31T17:11:15.717Z,19.70
2022-07-31T17:13:45.086Z,19.67
2022-07-31T17:16:14.376Z,19.75
2022-07-31T17:18:43.673Z,20.21
2022-07-31T17:21:25.726Z,20.47
2022-07-31T17:24:00.249Z,20.31
2022-07-31T17:26:29.608Z,20.29
2022-07-31T17:28:58.892Z,20.27
2022-07-31T17:31:28.225Z,19.88
2022-07-31T17:33:59.961Z,20.24
2022-07-31T17:36:34.009Z,20.61
2022-07-31T17:39:03.358Z,20.01
2022-07-31T17:41:32.707Z,20.14
2022-07-31T17:44:02.106Z,20.63
2022-07-31T17:46:36.267Z,20.98
2022-07-31T17:49:08.310Z,21.27
2022-07-31T17:51:40.329Z,21.30
2022-07-31T17:54:28.985Z,21.40
2022-07-31T17:56:58.430Z,20.74
2022-07-31T17:59:27.756Z,21.29
2022-07-31T18:02:00.560Z,21.53
2022-07-31T18:04:30.488Z,21.86
2022-07-31T18:07:04.339Z,21.92
2022-07-31T18:09:35.206Z,22.95
2022-07-31T18:12:06.034Z,23.69
2022-07-31T18:14:35.576Z,24.38
2022-07-31T18:17:04.972Z,25.02
2022-07-31T18:19:34.288Z,25.83
2022-07-31T18:22:06.574Z,25.75
2022-07-31T18:24:36.201Z,26.04
2022-07-31T18:27:05.602Z,26.37
2022-07-31T18:29:34.952Z,27.18
2022-07-31T18:32:04.578Z,27.31
2022-07-31T18:34:34.040Z,27.64
2022-07-31T18:37:05.954Z,27.88
2022-07-31T18:39:48.756Z,27.95
2022-07-31T18:42:18.875Z,27.77
2022-07-31T18:44:48.273Z,28.12
2022-07-31T18:47:17.627Z,27.70
2022-07-31T18:50:59.456Z,27.86
2022-07-31T18:52:41.300Z,28.28
2022-07-31T18:55:11.404Z,28.79
2022-07-31T18:57:40.733Z,28.58
2022-07-31T19:00:11.191Z,28.83
2022-07-31T19:02:40.558Z,29.29
2022-07-31T19:05:13.619Z,28.88
2022-07-31T19:07:53.523Z,29.23
2022-07-31T19:10:31.744Z,29.37
2022-07-31T19:13:01.901Z,29.32
2022-07-31T19:15:31.219Z,29.45
2022-07-31T19:18:02.962Z,29.71
2022-07-31T19:20:58.925Z,30.06
2022-07-31T19:23:35.077Z,29.89
2022-07-31T19:26:04.885Z,29.66
2022-07-31T19:28:34.282Z,30.19
2022-07-31T19:31:03.621Z,30.10
2022-07-31T19:33:32.996Z,30.06
2022-07-31T19:36:03.378Z,30.18
2022-07-31T19:38:36.022Z,30.32
2022-07-31T19:41:05.478Z,30.31
2022-07-31T19:43:35.822Z,30.85
2022-07-31T19:46:11.204Z,30.74
2022-07-31T19:48:41.655Z,31.48
2022-07-31T19:51:11.261Z,31.55
2022-07-31T19:53:43.321Z,31.84
2022-07-31T19:56:19.728Z,31.64
2022-07-31T19:58:50.507Z,31.88
2022-07-31T20:01:20.582Z,32.32
2022-07-31T20:03:50.453Z,32.40
2022-07-31T20:06:19.835Z,32.28
2022-07-31T20:08:51.801Z,32.49
2022-07-31T20:11:21.182Z,33.11
2022-07-31T20:13:50.555Z,33.40
2022-07-31T20:16:20.019Z,33.67
2022-07-31T20:18:49.834Z,33.27
2022-07-31T20:21:19.287Z,34.10
2022-07-31T20:23:48.918Z,34.10
2022-07-31T20:26:21.721Z,33.65
2022-07-31T20:28:51.051Z,34.63
2022-07-31T20:31:21.578Z,34.49
2022-07-31T20:33:57.384Z,34.67
2022-07-31T20:36:27.343Z,34.59
2022-07-31T20:38:58.682Z,34.86
2022-07-31T20:41:30.731Z,34.67
2022-07-31T20:44:00.435Z,34.95
2022-07-31T20:46:30.361Z,35.29
2022-07-31T20:49:00.663Z,35.27
2022-07-31T20:51:30.086Z,35.04
2022-07-31T20:53:59.496Z,35.70
2022-07-31T20:56:32.181Z,35.67
2022-07-31T20:59:01.504Z,35.68
2022-07-31T21:01:30.867Z,35.86
2022-07-31T21:04:01.745Z,35.51
2022-07-31T21:06:32.575Z,35.67
2022-07-31T21:09:04.606Z,36.01
2022-07-31T21:11:36.821Z,36.01
2022-07-31T21:14:06.193Z,36.47
2022-07-31T21:16:35.508Z,36.38
2022-07-31T21:19:04.874Z,36.76
2022-07-31T21:21:34.191Z,36.84
2022-07-31T21:24:03.803Z,36.59
2022-07-31T21:26:36.772Z,37.00
2022-07-31T21:29:09.069Z,36.86
2022-07-31T21:31:38.810Z,37.37
2022-07-31T21:34:18.827Z,37.22
2022-07-31T21:36:50.304Z,37.34
2022-07-31T21:39:20.415Z,37.73
2022-07-31T21:41:52.744Z,38.08
2022-07-31T21:44:22.466Z,38.01
2022-07-31T21:46:57.468Z,38.25
2022-07-31T21:49:34.274Z,38.21
2022-07-31T21:52:04.232Z,38.33
2022-07-31T21:54:33.801Z,38.93
2022-07-31T21:57:05.841Z,38.94
2022-07-31T21:59:35.191Z,39.28
2022-07-31T22:02:04.620Z,39.30
2022-07-31T22:04:34.858Z,39.39
2022-07-31T22:07:16.682Z,39.80
2022-07-31T22:09:45.982Z,39.74
2022-07-31T22:12:17.888Z,40.11
2022-07-31T22:17:24.294Z,40.09
2022-07-31T22:20:01.185Z,40.63
2022-07-31T22:22:31.144Z,40.95
2022-07-31T22:25:00.783Z,40.91
2022-07-31T22:27:45.444Z,40.73
2022-07-31T22:30:16.093Z,41.21
2022-07-31T22:32:47.610Z,41.56
2022-07-31T22:35:20.049Z,41.88
2022-07-31T22:37:52.850Z,42.24
2022-07-31T22:40:23.146Z,42.51
2022-07-31T22:42:57.533Z,42.18
2022-07-31T22:45:27.836Z,42.54
2022-07-31T22:47:57.838Z,42.39
2022-07-31T22:50:27.620Z,42.46
2022-07-31T22:52:57.373Z,42.49
2022-07-31T22:55:26.931Z,43.06
2022-07-31T22:57:58.985Z,43.11
2022-07-31T23:00:28.408Z,43.33
2022-07-31T23:02:57.872Z,44.08
2022-07-31T23:05:27.361Z,44.34
2022-07-31T23:07:56.717Z,44.61
2022-07-31T23:10:26.150Z,44.63
2022-07-31T23:12:55.511Z,44.62
2022-07-31T23:15:27.481Z,45.10
2022-07-31T23:17:57.015Z,45.03
2022-07-31T23:20:26.375Z,44.96
2022-07-31T23:22:55.750Z,44.87
2022-07-31T23:25:25.127Z,44.99
2022-07-31T23:27:54.457Z,45.57
2022-07-31T23:30:24.375Z,45.88
2022-07-31T23:32:56.363Z,46.02
2022-07-31T23:35:25.685Z,45.99
2022-07-31T23:37:54.973Z,46.29
2022-07-31T23:40:24.408Z,46.69
2022-07-31T23:42:51.119Z,47.04
2022-07-31T23:45:20.515Z,47.12
2022-07-31T23:47:50.945Z,47.68
2022-07-31T23:50:22.967Z,47.70
2022-07-31T23:52:52.447Z,47.72
2022-07-31T23:55:21.892Z,47.96
2022-07-31T23:57:53.624Z,47.91
